createdAt,value
2023-02-03T00:00:00.102Z, 91.3
2023-02-03T00:02:00.148Z, 91.9
2023-02-03T00:04:00.084Z, 92.2
2023-02-03T00:06:00.108Z, 92.5
2023-02-03T00:08:00.089Z, 92.8
2023-02-03T00:10:00.131Z, 93.1
2023-02-03T00:12:00.104Z, 93.3
2023-02-03T00:14:00.082Z, 93.3
2023-02-03T00:16:00.171Z, 93.5
2023-02-03T00:18:00.111Z, 93.7
2023-02-03T00:20:00.123Z, 93.9
2023-02-03T00:22:00.102Z, 94
2023-02-03T00:24:00.090Z, 93.8
2023-02-03T00:26:00.120Z, 93.6
2023-02-03T00:28:00.172Z, 93.5
2023-02-03T00:30:00.143Z, 93.8
2023-02-03T00:32:00.249Z, 93.7
2023-02-03T00:34:00.080Z, 93.8
2023-02-03T00:36:00.095Z, 93.6
2023-02-03T00:38:00.094Z, 93.7
2023-02-03T00:40:00.100Z, 93.7
2023-02-03T00:42:00.067Z, 93.6
2023-02-03T00:44:00.103Z, 93.8
2023-02-03T00:46:00.450Z, 93.9
2023-02-03T00:48:00.101Z, 93.8
2023-02-03T00:50:00.149Z, 93.8
2023-02-03T00:52:00.094Z, 93.7
2023-02-03T00:54:00.102Z, 93.8
2023-02-03T00:56:00.109Z, 93.9
2023-02-03T00:58:00.100Z, 93.8
2023-02-03T01:00:00.138Z, 93.8
2023-02-03T01:02:00.199Z, 94.1
2023-02-03T01:04:00.073Z, 94.4
2023-02-03T01:06:00.075Z, 94.9
2023-02-03T01:08:00.127Z, 95
2023-02-03T01:10:00.086Z, 95.4
2023-02-03T01:12:00.086Z, 95.4
2023-02-03T01:14:00.071Z, 95
2023-02-03T01:16:00.093Z, 95.2
2023-02-03T01:18:00.091Z, 95.2
2023-02-03T01:20:00.125Z, 95
2023-02-03T01:22:00.113Z, 95.1
2023-02-03T01:24:00.069Z, 94.7
2023-02-03T01:26:00.101Z, 93.9
2023-02-03T01:28:00.167Z, 93.8
2023-02-03T01:30:00.099Z, 93.8
2023-02-03T01:32:00.241Z, 93.3
2023-02-03T01:34:00.101Z, 93
2023-02-03T01:36:00.106Z, 92.8
2023-02-03T01:38:00.102Z, 92.9
2023-02-03T01:40:00.104Z, 93.3
2023-02-03T01:42:00.107Z, 93.1
2023-02-03T01:44:00.109Z, 93.1
2023-02-03T01:46:00.195Z, 93.6
2023-02-03T01:48:00.131Z, 94.2
2023-02-03T01:50:00.190Z, 94.2
2023-02-03T01:52:00.043Z, 94.2
2023-02-03T01:54:00.033Z, 94.2
2023-02-03T01:56:00.028Z, 94.3
2023-02-03T01:58:00.067Z, 94.5
2023-02-03T02:00:00.146Z, 94.3
2023-02-03T02:02:00.147Z, 93.9
2023-02-03T02:04:00.099Z, 93.1
2023-02-03T02:06:00.139Z, 92.7
2023-02-03T02:08:00.098Z, 93
2023-02-03T02:10:00.099Z, 93.1
2023-02-03T02:12:00.333Z, 92.4
2023-02-03T02:14:00.097Z, 92.4
2023-02-03T02:16:00.194Z, 92.2
2023-02-03T02:18:00.090Z, 91.8
2023-02-03T02:20:00.089Z, 91.6
2023-02-03T02:22:00.112Z, 91.4
2023-02-03T02:24:00.119Z, 91.3
2023-02-03T02:26:00.109Z, 91.2
2023-02-03T02:28:00.315Z, 91.3
2023-02-03T02:30:00.135Z, 91.4
2023-02-03T02:32:00.163Z, 91.1
2023-02-03T02:34:01.936Z, 91.2
2023-02-03T02:36:00.100Z, 91.1
2023-02-03T02:38:00.103Z, 91.3
2023-02-03T02:40:00.122Z, 91.4
2023-02-03T02:42:00.117Z, 91.4
2023-02-03T02:44:00.085Z, 92
2023-02-03T02:46:00.130Z, 92.3
2023-02-03T02:48:00.104Z, 92.4
2023-02-03T02:50:00.101Z, 92.4
2023-02-03T02:52:00.102Z, 92.1
2023-02-03T02:54:00.156Z, 92.4
2023-02-03T02:56:00.092Z, 92.5
2023-02-03T02:58:00.102Z, 92
2023-02-03T03:00:00.129Z, 91.8
2023-02-03T03:02:00.146Z, 91.9
2023-02-03T03:04:00.085Z, 92
2023-02-03T03:06:00.087Z, 91.4
2023-02-03T03:08:00.125Z, 91.5
2023-02-03T03:10:00.125Z, 91.6
2023-02-03T03:12:00.092Z, 91.5
2023-02-03T03:14:00.069Z, 91.7
2023-02-03T03:16:00.175Z, 91.5
2023-02-03T03:18:00.076Z, 91.2
2023-02-03T03:20:00.080Z, 91.3
2023-02-03T03:22:00.082Z, 91.2
2023-02-03T03:24:00.070Z, 90.7
2023-02-03T03:26:00.086Z, 90.2
2023-02-03T03:28:00.140Z, 89.9
2023-02-03T03:30:00.083Z, 89.5
2023-02-03T03:32:00.268Z, 89.3
2023-02-03T03:34:00.072Z, 89.3
2023-02-03T03:36:00.087Z, 88.8
2023-02-03T03:38:00.309Z, 88.6
2023-02-03T03:40:00.152Z, 89
2023-02-03T03:42:00.103Z, 88.9
2023-02-03T03:44:00.072Z, 88.9
2023-02-03T03:46:00.084Z, 88.9
2023-02-03T03:48:00.083Z, 89.3
2023-02-03T03:50:00.077Z, 89.5
2023-02-03T03:52:00.089Z, 89.7
2023-02-03T03:54:00.071Z, 90.1
2023-02-03T03:56:00.073Z, 90.5
2023-02-03T03:58:00.076Z, 91.4
2023-02-03T04:00:00.095Z, 91.7
2023-02-03T04:02:00.224Z, 92.8
2023-02-03T04:04:00.093Z, 93.5
2023-02-03T04:06:00.064Z, 93.9
2023-02-03T04:08:00.070Z, 94.3
2023-02-03T04:10:00.096Z, 94.8
2023-02-03T04:12:00.090Z, 94.8
2023-02-03T04:14:00.076Z, 96
2023-02-03T04:16:00.072Z, 96.4
2023-02-03T04:18:00.088Z, 96.5
2023-02-03T04:20:00.076Z, 96.6
2023-02-03T04:22:00.060Z, 97
2023-02-03T04:24:00.069Z, 97.4
2023-02-03T04:26:00.069Z, 97.5
2023-02-03T04:28:00.125Z, 97.4
2023-02-03T04:30:00.078Z, 97.4
2023-02-03T04:32:00.246Z, 97.5
2023-02-03T04:34:00.098Z, 97.1
2023-02-03T04:36:00.081Z, 96.9
2023-02-03T04:38:00.094Z, 97.1
2023-02-03T04:40:00.093Z, 97.7
2023-02-03T04:42:00.075Z, 97.6
2023-02-03T04:44:00.068Z, 97.5
2023-02-03T04:46:00.153Z, 97
2023-02-03T04:48:00.082Z, 96.8
2023-02-03T04:50:00.100Z, 96.3
2023-02-03T04:52:00.076Z, 95.9
2023-02-03T04:54:00.276Z, 95.4
2023-02-03T04:56:00.086Z, 95
2023-02-03T04:58:00.094Z, 95
2023-02-03T05:00:00.447Z, 95
2023-02-03T05:02:00.089Z, 95
2023-02-03T05:04:00.108Z, 93.8
2023-02-03T05:06:00.076Z, 93.6
2023-02-03T05:08:00.074Z, 92.9
2023-02-03T05:10:00.088Z, 92.9
2023-02-03T05:12:00.071Z, 92.5
2023-02-03T05:14:00.075Z, 92.4
2023-02-03T05:16:00.072Z, 92.2
2023-02-03T05:18:00.069Z, 90.7
2023-02-03T05:20:00.077Z, 89.9
2023-02-03T05:22:00.087Z, 89.5
2023-02-03T05:24:00.060Z, 89.6
2023-02-03T05:26:00.088Z, 89.7
2023-02-03T05:28:00.186Z, 89.7
2023-02-03T05:30:00.099Z, 89.9
2023-02-03T05:32:00.163Z, 90.3
2023-02-03T05:34:00.074Z, 90.3
2023-02-03T05:36:00.082Z, 89.9
2023-02-03T05:38:00.072Z, 89.8
2023-02-03T05:40:00.087Z, 89.7
2023-02-03T05:42:00.077Z, 89.8
2023-02-03T05:44:00.106Z, 89.7
2023-02-03T05:46:00.252Z, 89.1
2023-02-03T05:48:00.111Z, 88.7
2023-02-03T05:50:00.105Z, 88.9
2023-02-03T05:52:00.085Z, 88.8
2023-02-03T05:54:00.080Z, 88.3
2023-02-03T05:56:00.141Z, 88.3
2023-02-03T05:58:00.149Z, 88.4
2023-02-03T06:00:00.076Z, 88.1
2023-02-03T06:02:00.077Z, 88.3
2023-02-03T06:04:00.408Z, 88.6
2023-02-03T06:06:00.172Z, 88.5
2023-02-03T06:08:00.084Z, 88.5
2023-02-03T06:10:00.083Z, 88.3
2023-02-03T06:12:00.081Z, 88.5
2023-02-03T06:14:00.360Z, 88.6
2023-02-03T06:16:00.088Z, 88.6
2023-02-03T06:18:00.119Z, 88.4
2023-02-03T06:20:00.113Z, 88.3
2023-02-03T06:22:00.128Z, 88
2023-02-03T06:24:00.076Z, 87.9
2023-02-03T06:26:00.081Z, 88.1
2023-02-03T06:28:00.155Z, 88.3
2023-02-03T06:30:00.083Z, 87.9
2023-02-03T06:32:00.398Z, 87.6
2023-02-03T06:34:00.079Z, 87.4
2023-02-03T06:36:00.085Z, 87.3
2023-02-03T06:38:00.072Z, 86.8
2023-02-03T06:40:00.090Z, 86.4
2023-02-03T06:42:00.095Z, 86.5
2023-02-03T06:44:00.072Z, 86.8
2023-02-03T06:46:00.143Z, 86.4
2023-02-03T06:48:00.085Z, 85.9
2023-02-03T06:50:00.123Z, 86.3
2023-02-03T06:52:00.076Z, 86.3
2023-02-03T06:54:00.088Z, 86.5
2023-02-03T06:56:00.088Z, 86.9
2023-02-03T06:58:00.076Z, 87.3
2023-02-03T07:00:00.182Z, 87.2
2023-02-03T07:02:00.082Z, 86.7
2023-02-03T07:04:00.066Z, 86.9
2023-02-03T07:06:00.080Z, 87.3
2023-02-03T07:08:00.088Z, 87.1
2023-02-03T07:10:00.092Z, 87
2023-02-03T07:12:00.129Z, 86.8
2023-02-03T07:14:00.087Z, 86.3
2023-02-03T07:16:00.127Z, 86.2
2023-02-03T07:18:00.099Z, 86.2
2023-02-03T07:20:00.104Z, 86
2023-02-03T07:22:00.103Z, 85.8
2023-02-03T07:24:00.095Z, 85.7
2023-02-03T07:26:00.069Z, 85.5
2023-02-03T07:28:00.377Z, 85.2
2023-02-03T07:30:00.211Z, 85
2023-02-03T07:32:00.184Z, 84.9
2023-02-03T07:34:00.075Z, 85.2
2023-02-03T07:36:00.067Z, 85.4
2023-02-03T07:38:00.089Z, 85.3
2023-02-03T07:40:00.078Z, 85.2
2023-02-03T07:42:00.077Z, 85.4
2023-02-03T07:44:00.098Z, 85.6
2023-02-03T07:46:00.090Z, 85.7
2023-02-03T07:48:00.074Z, 85
2023-02-03T07:50:00.083Z, 84.9
2023-02-03T07:52:00.071Z, 85.1
2023-02-03T07:54:00.085Z, 85.5
2023-02-03T07:56:00.114Z, 85.5
2023-02-03T07:58:02.905Z, 85
2023-02-03T08:00:00.087Z, 85
2023-02-03T08:02:00.131Z, 85.1
2023-02-03T08:04:00.072Z, 85
2023-02-03T08:06:00.085Z, 84.8
2023-02-03T08:08:00.074Z, 84.8
2023-02-03T08:10:00.091Z, 84.6
2023-02-03T08:12:00.135Z, 84.7
2023-02-03T08:14:00.070Z, 84
2023-02-03T08:16:00.134Z, 83.9
2023-02-03T08:18:00.081Z, 83.9
2023-02-03T08:20:00.135Z, 84.5
2023-02-03T08:22:00.082Z, 83.4
2023-02-03T08:24:00.072Z, 83.4
2023-02-03T08:26:00.086Z, 83.3
2023-02-03T08:28:00.155Z, 83.3
2023-02-03T08:30:00.074Z, 83.3
2023-02-03T08:32:00.231Z, 83.2
2023-02-03T08:34:00.079Z, 82.8
2023-02-03T08:36:00.082Z, 82.5
2023-02-03T08:38:00.078Z, 82.6
2023-02-03T08:40:00.070Z, 82.9
2023-02-03T08:42:00.088Z, 82.8
2023-02-03T08:44:00.078Z, 83.1
2023-02-03T08:46:00.164Z, 83.2
2023-02-03T08:48:00.071Z, 82.7
2023-02-03T08:50:00.111Z, 82.4
2023-02-03T08:52:00.106Z, 82.3
2023-02-03T08:54:00.078Z, 82.4
2023-02-03T08:56:00.072Z, 82.3
2023-02-03T08:58:00.082Z, 82.8
2023-02-03T09:00:00.035Z, 82.1
2023-02-03T09:02:00.153Z, 81.9
2023-02-03T09:04:00.070Z, 81.4
2023-02-03T09:06:00.067Z, 81.4
2023-02-03T09:08:00.068Z, 81.7
2023-02-03T09:10:00.106Z, 81.8
2023-02-03T09:12:00.106Z, 81.5
2023-02-03T09:14:00.106Z, 81.5
2023-02-03T09:16:00.069Z, 81.9
2023-02-03T09:18:00.356Z, 81.3
2023-02-03T09:20:00.141Z, 81.6
2023-02-03T09:22:00.100Z, 81.3
2023-02-03T09:24:00.064Z, 81
2023-02-03T09:26:00.065Z, 80.7
2023-02-03T09:28:00.189Z, 81.1
2023-02-03T09:30:00.107Z, 80.3
2023-02-03T09:32:00.227Z, 80.1
2023-02-03T09:34:00.083Z, 79.6
2023-02-03T09:36:00.132Z, 79.7
2023-02-03T09:38:00.098Z, 79.8
2023-02-03T09:40:00.118Z, 80.1
2023-02-03T09:42:01.234Z, 80.1
2023-02-03T09:44:00.091Z, 79.9
2023-02-03T09:46:00.163Z, 78.9
2023-02-03T09:48:00.105Z, 78.6
2023-02-03T09:50:00.141Z, 78.6
2023-02-03T09:52:00.139Z, 79.7
2023-02-03T09:54:00.107Z, 79.4
2023-02-03T09:56:00.147Z, 79.3
2023-02-03T09:58:00.110Z, 79.4
2023-02-03T10:00:00.144Z, 79.7
2023-02-03T10:02:00.074Z, 79.7
2023-02-03T10:04:00.069Z, 79.6
2023-02-03T10:06:00.100Z, 79.8
2023-02-03T10:08:00.108Z, 80.1
2023-02-03T10:10:00.115Z, 80.3
2023-02-03T10:12:00.070Z, 81.2
2023-02-03T10:14:00.095Z, 81
2023-02-03T10:16:00.105Z, 81.1
2023-02-03T10:18:00.098Z, 81.3
2023-02-03T10:20:00.120Z, 81.7
2023-02-03T10:22:00.138Z, 82.3
2023-02-03T10:24:00.098Z, 82.7
2023-02-03T10:26:00.097Z, 82.8
2023-02-03T10:28:00.171Z, 82.7
2023-02-03T10:30:00.114Z, 82.9
2023-02-03T10:32:00.244Z, 83.8
2023-02-03T10:34:00.072Z, 83.6
2023-02-03T10:36:00.079Z, 83.7
2023-02-03T10:38:00.086Z, 84.2
2023-02-03T10:40:00.115Z, 84.4
2023-02-03T10:42:00.117Z, 85.3
2023-02-03T10:44:00.122Z, 86.1
2023-02-03T10:46:00.133Z, 86.6
2023-02-03T10:48:00.119Z, 86.9
2023-02-03T10:50:00.137Z, 87.5
2023-02-03T10:52:00.113Z, 88
2023-02-03T10:54:00.237Z, 88.9
2023-02-03T10:56:00.305Z, 89.7
2023-02-03T10:58:00.321Z, 90.9
2023-02-03T11:00:00.264Z, 91.5
2023-02-03T11:02:00.170Z, 92.4
2023-02-03T11:04:00.114Z, 93.2
2023-02-03T11:06:00.139Z, 94.4
2023-02-03T11:08:00.138Z, 94.6
2023-02-03T11:10:00.090Z, 95
2023-02-03T11:12:00.091Z, 95.8
2023-02-03T11:14:00.085Z, 96.3
2023-02-03T11:16:00.181Z, 96.4
2023-02-03T11:18:00.085Z, 96.9
2023-02-03T11:20:00.128Z, 97.2
2023-02-03T11:22:00.091Z, 97.4
2023-02-03T11:24:00.095Z, 96.9
2023-02-03T11:26:00.115Z, 96.9
2023-02-03T11:28:00.187Z, 97.2
2023-02-03T11:30:00.095Z, 97.2
2023-02-03T11:32:00.220Z, 97.2
2023-02-03T11:34:00.137Z, 97.6
2023-02-03T11:36:00.116Z, 97.5
2023-02-03T11:38:00.080Z, 97.7
2023-02-03T11:40:00.112Z, 97.9
2023-02-03T11:42:00.106Z, 98.5
2023-02-03T11:44:00.120Z, 98.8
2023-02-03T11:46:00.121Z, 98.7
2023-02-03T11:48:00.097Z, 99.5
2023-02-03T11:50:00.094Z, 100
2023-02-03T11:52:00.113Z, 100
2023-02-03T11:54:00.119Z, 100
2023-02-03T11:56:00.112Z, 100
2023-02-03T11:58:00.180Z, 100
2023-02-03T12:00:00.101Z, 100
2023-02-03T12:02:00.071Z, 100
2023-02-03T12:04:00.079Z, 100
2023-02-03T12:06:00.097Z, 100
2023-02-03T12:08:00.116Z, 100
2023-02-03T12:10:00.138Z, 100
2023-02-03T12:12:00.120Z, 100
2023-02-03T12:14:00.080Z, 100
2023-02-03T12:16:00.217Z, 100
2023-02-03T12:18:00.087Z, 100
2023-02-03T12:20:00.113Z, 100
2023-02-03T12:22:00.091Z, 100
2023-02-03T12:24:00.115Z, 100
2023-02-03T12:26:00.110Z, 100
2023-02-03T12:28:00.165Z, 100
2023-02-03T12:30:00.126Z, 100
2023-02-03T12:32:00.105Z, 100
2023-02-03T12:34:00.130Z, 100
2023-02-03T12:36:00.113Z, 100
2023-02-03T12:38:00.097Z, 100
2023-02-03T12:40:00.134Z, 100
2023-02-03T12:42:00.093Z, 100
2023-02-03T12:44:00.099Z, 100
2023-02-03T12:46:00.166Z, 100
2023-02-03T12:48:00.087Z, 100
2023-02-03T12:50:00.119Z, 100
2023-02-03T12:52:00.066Z, 100
2023-02-03T12:54:00.097Z, 100
2023-02-03T12:56:00.104Z, 100
2023-02-03T12:58:00.127Z, 100
2023-02-03T13:00:00.148Z, 100
2023-02-03T13:02:00.207Z, 100
2023-02-03T13:04:00.119Z, 100
2023-02-03T13:06:00.065Z, 100
2023-02-03T13:08:00.109Z, 100
2023-02-03T13:10:00.087Z, 100
2023-02-03T13:12:00.098Z, 100
2023-02-03T13:14:00.099Z, 100
2023-02-03T13:16:00.098Z, 100
2023-02-03T13:18:00.086Z, 97.4
2023-02-03T13:20:00.205Z, 97.7
2023-02-03T13:22:00.265Z, 98.5
2023-02-03T13:24:00.098Z, 98.9
2023-02-03T13:26:00.118Z, 99.4
2023-02-03T13:28:00.159Z, 99.9
2023-02-03T13:30:00.115Z, 100
2023-02-03T13:32:00.152Z, 100
2023-02-03T13:34:00.144Z, 100
2023-02-03T13:36:00.083Z, 100
2023-02-03T13:38:00.076Z, 100
2023-02-03T13:40:00.147Z, 100
2023-02-03T13:42:00.069Z, 100
2023-02-03T13:44:00.087Z, 100
2023-02-03T13:46:00.125Z, 100
2023-02-03T13:48:00.093Z, 100
2023-02-03T13:50:00.145Z, 100
2023-02-03T13:52:00.093Z, 100
2023-02-03T13:54:00.139Z, 100
2023-02-03T13:56:00.099Z, 100
2023-02-03T13:58:00.109Z, 100
2023-02-03T14:00:00.104Z, 100
2023-02-03T14:02:00.097Z, 100
2023-02-03T14:04:00.216Z, 100
2023-02-03T14:06:00.103Z, 100
2023-02-03T14:08:00.076Z, 100
2023-02-03T14:10:00.109Z, 100
2023-02-03T14:12:00.110Z, 100
2023-02-03T14:14:00.071Z, 100
2023-02-03T14:16:00.106Z, 100
2023-02-03T14:18:00.114Z, 100
2023-02-03T14:20:00.114Z, 100
2023-02-03T14:22:00.163Z, 100
2023-02-03T14:24:00.115Z, 100
2023-02-03T14:26:00.080Z, 100
2023-02-03T14:28:00.265Z, 100
2023-02-03T14:30:00.111Z, 100
2023-02-03T14:32:00.199Z, 100
2023-02-03T14:34:00.073Z, 100
2023-02-03T14:36:00.113Z, 100
2023-02-03T14:38:00.097Z, 100
2023-02-03T14:40:00.124Z, 100
2023-02-03T14:42:00.110Z, 100
2023-02-03T14:44:00.192Z, 100
2023-02-03T14:46:00.151Z, 100
2023-02-03T14:48:00.119Z, 100
2023-02-03T14:50:00.106Z, 100
2023-02-03T14:52:00.142Z, 100
2023-02-03T14:54:00.106Z, 100
2023-02-03T14:56:00.109Z, 100
2023-02-03T14:58:00.091Z, 100
2023-02-03T15:00:00.099Z, 100
2023-02-03T15:02:00.118Z, 100
2023-02-03T15:04:00.283Z, 100
2023-02-03T15:06:00.117Z, 100
2023-02-03T15:08:00.242Z, 100
2023-02-03T15:10:00.254Z, 100
2023-02-03T15:12:00.089Z, 100
2023-02-03T15:14:00.108Z, 93.4
2023-02-03T15:16:00.180Z, 92.8
2023-02-03T15:18:00.102Z, 92.8
2023-02-03T15:20:00.122Z, 92.8
2023-02-03T15:22:00.101Z, 92.8
2023-02-03T15:24:00.097Z, 92.8
2023-02-03T15:26:00.119Z, 92.8
2023-02-03T15:28:00.155Z, 92.8
2023-02-03T15:30:00.105Z, 92.8
2023-02-03T15:32:00.130Z, 92.8
2023-02-03T15:34:00.109Z, 92.8
2023-02-03T15:36:00.115Z, 92.8
2023-02-03T15:38:00.113Z, 92.8
2023-02-03T15:40:00.126Z, 92.8
2023-02-03T15:42:00.095Z, 92.8
2023-02-03T15:44:00.078Z, 92.8
2023-02-03T15:46:00.337Z, 92.8
2023-02-03T15:48:00.107Z, 92.8
2023-02-03T15:50:00.120Z, 92.8
2023-02-03T15:52:00.100Z, 92.8
2023-02-03T15:54:00.080Z, 92.8
2023-02-03T15:56:00.097Z, 92.8
2023-02-03T15:58:00.129Z, 92.8
2023-02-03T16:00:00.174Z, 92.8
2023-02-03T16:02:00.143Z, 95.5
2023-02-03T16:04:00.109Z, 95.2
2023-02-03T16:06:00.119Z, 95.1
2023-02-03T16:08:00.158Z, 95.6
2023-02-03T16:10:00.133Z, 96.3
2023-02-03T16:12:00.076Z, 96
2023-02-03T16:14:00.089Z, 95.9
2023-02-03T16:16:00.211Z, 96
2023-02-03T16:18:00.126Z, 96.2
2023-02-03T16:20:00.128Z, 96.4
2023-02-03T16:22:00.103Z, 96.2
2023-02-03T16:24:00.097Z, 96.2
2023-02-03T16:26:00.097Z, 96.4
2023-02-03T16:28:00.165Z, 95.6
2023-02-03T16:30:00.119Z, 95.2
2023-02-03T16:32:00.139Z, 94.8
2023-02-03T16:34:00.122Z, 94.7
2023-02-03T16:36:00.075Z, 94.3
2023-02-03T16:38:00.103Z, 93.6
2023-02-03T16:40:00.109Z, 93.2
2023-02-03T16:42:00.110Z, 92.4
2023-02-03T16:44:00.112Z, 92.3
2023-02-03T16:46:00.185Z, 92.3
2023-02-03T16:48:00.118Z, 92.1
2023-02-03T16:50:00.109Z, 91.8
2023-02-03T16:52:00.111Z, 91.8
2023-02-03T16:54:00.092Z, 91.8
2023-02-03T16:56:00.129Z, 92.1
2023-02-03T16:58:00.117Z, 92.6
2023-02-03T17:00:00.107Z, 92.4
2023-02-03T17:02:00.164Z, 92.8
2023-02-03T17:04:00.129Z, 92.3
2023-02-03T17:06:00.112Z, 91.9
2023-02-03T17:08:00.108Z, 91.5
2023-02-03T17:10:00.118Z, 91.7
2023-02-03T17:12:00.109Z, 91.9
2023-02-03T17:14:00.092Z, 92
2023-02-03T17:16:00.339Z, 91.7
2023-02-03T17:18:00.081Z, 91.2
2023-02-03T17:20:00.135Z, 90.7
2023-02-03T17:22:00.080Z, 91.3
2023-02-03T17:24:00.083Z, 92.1
2023-02-03T17:26:00.119Z, 93.5
2023-02-03T17:28:00.167Z, 94.6
2023-02-03T17:30:00.101Z, 95.7
2023-02-03T17:32:00.224Z, 96.9
2023-02-03T17:34:00.124Z, 98.3
2023-02-03T17:36:00.130Z, 96.7
2023-02-03T17:38:00.105Z, 95.6
2023-02-03T17:54:00.119Z, 89.8
2023-02-03T17:56:00.174Z, 89.2
2023-02-03T17:58:00.078Z, 89.1
2023-02-03T18:00:00.103Z, 88.9
2023-02-03T18:02:00.290Z, 88.7
2023-02-03T18:04:00.074Z, 88.8
2023-02-03T18:06:00.080Z, 88.6
2023-02-03T18:08:05.859Z, 89
2023-02-03T18:10:00.092Z, 88.2
2023-02-03T18:12:00.078Z, 87.7
2023-02-03T18:14:00.052Z, 87.7
2023-02-03T18:16:00.084Z, 87.6
2023-02-03T18:18:00.063Z, 86.7
2023-02-03T18:20:00.164Z, 86.2
2023-02-03T18:22:00.065Z, 86.8
2023-02-03T18:24:00.062Z, 86.9
2023-02-03T18:26:00.050Z, 87.2
2023-02-03T18:28:00.094Z, 87.3
2023-02-03T18:30:00.086Z, 87.9
2023-02-03T18:32:00.063Z, 88.5
2023-02-03T18:34:00.072Z, 88.7
2023-02-03T18:36:00.087Z, 88.7
2023-02-03T18:38:00.086Z, 88.7
2023-02-03T18:40:00.091Z, 89.2
2023-02-03T18:42:00.074Z, 89.3
2023-02-03T18:44:00.066Z, 89.2
2023-02-03T18:46:00.167Z, 89.1
2023-02-03T18:48:00.070Z, 89.2
2023-02-03T18:50:00.113Z, 89.4
2023-02-03T18:52:00.078Z, 89.4
2023-02-03T18:54:00.284Z, 89.4
2023-02-03T18:56:00.352Z, 89.3
2023-02-03T18:58:00.090Z, 89
2023-02-03T19:00:00.073Z, 88.9
2023-02-03T19:02:00.070Z, 88.8
2023-02-03T19:04:00.066Z, 88.9
2023-02-03T19:06:00.041Z, 89.3
2023-02-03T19:08:00.077Z, 89.3
2023-02-03T19:10:00.078Z, 88.8
2023-02-03T19:12:00.114Z, 88.1
2023-02-03T19:14:00.075Z, 88
2023-02-03T19:16:00.147Z, 88.1
2023-02-03T19:18:00.074Z, 87.9
2023-02-03T19:20:00.111Z, 86.7
2023-02-03T19:22:00.088Z, 86.3
2023-02-03T19:24:00.080Z, 85.9
2023-02-03T19:26:00.132Z, 85.8
2023-02-03T19:28:00.195Z, 86
2023-02-03T19:30:00.149Z, 86.2
2023-02-03T19:32:00.230Z, 86.3
2023-02-03T19:34:00.086Z, 86.3
2023-02-03T19:36:00.094Z, 86.4
2023-02-03T19:38:00.092Z, 86.1
2023-02-03T19:40:00.116Z, 85.9
2023-02-03T19:42:00.079Z, 85.6
2023-02-03T19:44:00.067Z, 85.4
2023-02-03T19:46:00.185Z, 85.6
2023-02-03T19:48:00.101Z, 84.9
2023-02-03T19:50:00.112Z, 84.2
2023-02-03T19:52:00.112Z, 84.2
2023-02-03T19:54:00.096Z, 84.2
2023-02-03T19:56:00.106Z, 84.4
2023-02-03T19:58:00.199Z, 84.4
2023-02-03T20:00:00.090Z, 84.8
2023-02-03T20:02:12.622Z, 84.3
2023-02-03T20:04:00.108Z, 84.2
2023-02-03T20:06:01.109Z, 83.9
2023-02-03T20:08:00.117Z, 83.6
2023-02-03T20:10:00.099Z, 82.2
2023-02-03T20:12:00.105Z, 80.9
2023-02-03T20:14:00.075Z, 80.2
2023-02-03T20:16:00.180Z, 80.6
2023-02-03T20:18:00.140Z, 80.2
2023-02-03T20:20:00.103Z, 79.9
2023-02-03T20:22:00.121Z, 79.9
2023-02-03T20:24:00.109Z, 79.5
2023-02-03T20:26:00.058Z, 78.5
2023-02-03T20:28:00.166Z, 78.5
2023-02-03T20:30:00.095Z, 78.3
2023-02-03T20:32:00.146Z, 78.1
2023-02-03T20:34:00.110Z, 78.3
2023-02-03T20:36:00.099Z, 78.4
2023-02-03T20:38:00.103Z, 78.8
2023-02-03T20:40:00.113Z, 78.5
2023-02-03T20:42:00.074Z, 78.8
2023-02-03T20:44:00.117Z, 78.9
2023-02-03T20:46:00.073Z, 79.1
2023-02-03T20:48:00.081Z, 78.7
2023-02-03T20:50:00.108Z, 78.6
2023-02-03T20:52:00.108Z, 78.8
2023-02-03T20:54:00.105Z, 79.1
2023-02-03T20:56:00.112Z, 79.9
2023-02-03T20:58:00.098Z, 79.2
2023-02-03T21:00:00.135Z, 79.5
2023-02-03T21:02:00.159Z, 79.7
2023-02-03T21:04:00.096Z, 79.7
2023-02-03T21:06:00.073Z, 79.7
2023-02-03T21:08:00.125Z, 80
2023-02-03T21:10:00.138Z, 80.1
2023-02-03T21:12:00.116Z, 80.4
2023-02-03T21:14:00.135Z, 80.9
2023-02-03T21:16:00.179Z, 80.7
2023-02-03T21:18:00.119Z, 81
2023-02-03T21:20:00.128Z, 80.9
2023-02-03T21:22:00.084Z, 80.4
2023-02-03T21:24:00.145Z, 80.1
2023-02-03T21:26:00.093Z, 80
2023-02-03T21:28:00.193Z, 79.9
2023-02-03T21:30:00.147Z, 80
2023-02-03T21:32:00.152Z, 80
2023-02-03T21:34:00.135Z, 80.1
2023-02-03T21:36:00.119Z, 80
2023-02-03T21:38:00.120Z, 79.6
2023-02-03T21:40:00.171Z, 79.4
2023-02-03T21:42:00.107Z, 78.2
2023-02-03T21:44:00.165Z, 78.4
2023-02-03T21:46:00.282Z, 79.1
2023-02-03T21:48:00.291Z, 79.2
2023-02-03T21:50:00.137Z, 78.9
2023-02-03T21:52:00.134Z, 79.1
2023-02-03T21:54:00.119Z, 79.6
2023-02-03T21:56:00.129Z, 79
2023-02-03T21:58:00.095Z, 79
2023-02-03T22:00:00.172Z, 78.6
2023-02-03T22:02:00.105Z, 78.4
2023-02-03T22:04:00.122Z, 77.9
2023-02-03T22:06:00.123Z, 77.8
2023-02-03T22:08:00.106Z, 78.6
2023-02-03T22:10:00.122Z, 78.9
2023-02-03T22:12:01.382Z, 78.5
2023-02-03T22:14:00.110Z, 78.2
2023-02-03T22:16:00.084Z, 78.5
2023-02-03T22:18:00.097Z, 78.6
2023-02-03T22:20:00.139Z, 78.8
2023-02-03T22:22:00.125Z, 78.6
2023-02-03T22:24:00.115Z, 78.9
2023-02-03T22:26:00.127Z, 78.5
2023-02-03T22:28:00.165Z, 78.6
2023-02-03T22:30:00.110Z, 78.5
2023-02-03T22:32:00.278Z, 78.2
2023-02-03T22:34:00.140Z, 78.4
2023-02-03T22:36:00.113Z, 79
2023-02-03T22:38:00.135Z, 79.6
2023-02-03T22:40:00.095Z, 79.4
2023-02-03T22:42:00.108Z, 80
2023-02-03T22:44:00.106Z, 79.7
2023-02-03T22:46:00.247Z, 80.1
2023-02-03T22:48:00.148Z, 79.5
2023-02-03T22:50:00.094Z, 78.6
2023-02-03T22:52:00.117Z, 78.1
2023-02-03T22:54:00.099Z, 78.6
2023-02-03T22:56:00.105Z, 79
2023-02-03T22:58:00.142Z, 79.3
2023-02-03T23:00:00.185Z, 78.6
2023-02-03T23:02:00.108Z, 78.1
2023-02-03T23:04:00.090Z, 78.5
2023-02-03T23:06:00.064Z, 78.4
2023-02-03T23:08:00.104Z, 78
2023-02-03T23:10:00.122Z, 77
2023-02-03T23:12:00.091Z, 76.3
2023-02-03T23:14:00.099Z, 77.3
2023-02-03T23:16:00.157Z, 78
2023-02-03T23:18:00.078Z, 76.6
2023-02-03T23:20:00.116Z, 75.8
2023-02-03T23:22:00.089Z, 75.8
2023-02-03T23:24:00.097Z, 76.3
2023-02-03T23:26:00.142Z, 76.8
2023-02-03T23:28:00.173Z, 77.6
2023-02-03T23:30:00.105Z, 78
2023-02-03T23:32:00.270Z, 77.8
2023-02-03T23:34:00.090Z, 77.2
2023-02-03T23:36:00.105Z, 76.9
2023-02-03T23:38:00.316Z, 77.2
2023-02-03T23:40:00.101Z, 77.5
2023-02-03T23:42:00.100Z, 77.7
2023-02-03T23:44:00.095Z, 78.1
2023-02-03T23:46:00.111Z, 77.8
2023-02-03T23:48:00.123Z, 77.7
2023-02-03T23:50:00.092Z, 77.3
2023-02-03T23:52:00.105Z, 77.7
2023-02-03T23:54:00.116Z, 77.3
2023-02-03T23:56:00.070Z, 76.9
2023-02-03T23:58:00.108Z, 77.3
